createdAt,value
2019-01-26T00:00:16.221Z,27.50
2019-01-26T00:02:42.753Z,27.33
2019-01-26T00:05:09.594Z,26.53
2019-01-26T00:07:36.130Z,27.10
2019-01-26T00:10:02.968Z,27.10
2019-01-26T00:12:29.504Z,28.63
2019-01-26T00:14:56.038Z,26.97
2019-01-26T00:17:22.879Z,27.10
2019-01-26T00:19:49.412Z,28.37
2019-01-26T00:22:15.948Z,27.27
2019-01-26T00:24:42.790Z,27.13
2019-01-26T00:27:09.323Z,27.77
2019-01-26T00:29:36.167Z,27.30
2019-01-26T00:32:02.701Z,27.60
2019-01-26T00:34:29.236Z,27.50
2019-01-26T00:36:56.077Z,27.93
2019-01-26T00:39:22.611Z,25.80
2019-01-26T00:41:49.453Z,27.80
2019-01-26T00:44:15.985Z,27.93
2019-01-26T00:46:42.828Z,28.30
2019-01-26T00:49:09.672Z,27.87
2019-01-26T00:51:36.511Z,27.43
2019-01-26T00:54:03.046Z,27.03
2019-01-26T00:56:29.889Z,27.80
2019-01-26T00:58:56.771Z,27.97
2019-01-26T01:01:23.572Z,27.27
2019-01-26T01:03:50.415Z,27.90
2019-01-26T01:06:17.255Z,27.53
2019-01-26T01:08:43.789Z,28.23
2019-01-26T01:11:10.631Z,28.00
2019-01-26T01:13:37.165Z,28.30
2019-01-26T01:16:03.700Z,29.07
2019-01-26T01:18:30.233Z,28.93
2019-01-26T01:20:56.843Z,28.77
2019-01-26T01:23:23.917Z,28.57
2019-01-26T01:25:50.758Z,27.63
2019-01-26T01:28:17.600Z,28.63
2019-01-26T01:30:44.443Z,28.03
2019-01-26T01:33:10.979Z,28.03
2019-01-26T01:35:37.818Z,28.23
2019-01-26T01:38:04.660Z,29.77
2019-01-26T01:40:31.507Z,30.70
2019-01-26T01:42:58.036Z,30.00
2019-01-26T01:45:24.570Z,29.57
2019-01-26T01:47:51.413Z,28.97
2019-01-26T01:50:18.254Z,30.10
2019-01-26T01:52:45.096Z,30.13
2019-01-26T01:55:11.634Z,29.73
2019-01-26T01:57:38.472Z,30.40
2019-01-26T02:00:05.315Z,30.20
2019-01-26T02:02:32.155Z,30.20
2019-01-26T02:04:58.692Z,31.00
2019-01-26T02:07:25.532Z,29.77
2019-01-26T02:09:52.068Z,30.40
2019-01-26T02:12:18.909Z,29.60
2019-01-26T02:14:45.750Z,29.77
2019-01-26T02:17:12.290Z,29.53
2019-01-26T02:19:39.128Z,30.20
2019-01-26T02:22:05.659Z,30.77
2019-01-26T02:24:32.194Z,30.17
2019-01-26T02:26:59.037Z,31.50
2019-01-26T02:29:25.571Z,30.53
2019-01-26T02:31:52.110Z,30.67
2019-01-26T02:34:18.947Z,31.93
2019-01-26T02:36:45.485Z,31.10
2019-01-26T02:39:12.018Z,31.27
2019-01-26T02:41:38.858Z,31.77
2019-01-26T02:44:05.395Z,30.93
2019-01-26T02:46:31.928Z,31.50
2019-01-26T02:48:58.770Z,30.63
2019-01-26T02:51:25.303Z,31.07
2019-01-26T02:53:52.147Z,30.77
2019-01-26T02:56:18.995Z,30.23
2019-01-26T02:58:45.831Z,31.37
2019-01-26T03:01:12.670Z,31.73
2019-01-26T03:03:39.206Z,31.77
2019-01-26T03:06:06.048Z,31.43
2019-01-26T03:08:32.588Z,30.77
2019-01-26T03:10:59.115Z,31.10
2019-01-26T03:13:25.959Z,29.97
2019-01-26T03:15:52.497Z,31.37
2019-01-26T03:18:19.027Z,31.23
2019-01-26T03:20:45.868Z,30.83
2019-01-26T03:23:12.710Z,30.10
2019-01-26T03:25:39.243Z,31.20
2019-01-26T03:28:06.085Z,29.83
2019-01-26T03:30:32.928Z,30.73
2019-01-26T03:32:59.463Z,29.30
2019-01-26T03:35:26.304Z,30.70
2019-01-26T03:37:52.839Z,31.23
2019-01-26T03:40:19.379Z,28.67
2019-01-26T03:42:46.001Z,30.27
2019-01-26T03:45:12.753Z,30.13
2019-01-26T03:47:39.290Z,29.70
2019-01-26T03:50:05.819Z,31.87
2019-01-26T03:52:32.659Z,29.17
2019-01-26T03:54:59.203Z,30.07
2019-01-26T03:57:25.729Z,30.00
2019-01-26T03:59:52.274Z,29.90
2019-01-26T04:02:18.799Z,30.53
2019-01-26T04:04:45.333Z,28.87
2019-01-26T04:07:12.174Z,28.57
2019-01-26T04:09:39.023Z,31.27
2019-01-26T04:12:05.865Z,28.80
2019-01-26T04:14:32.393Z,28.20
2019-01-26T04:16:58.926Z,30.40
2019-01-26T04:19:25.768Z,27.87
2019-01-26T04:21:52.305Z,29.47
2019-01-26T04:24:19.145Z,28.17
2019-01-26T04:26:45.988Z,27.90
2019-01-26T04:29:12.524Z,27.70
2019-01-26T04:31:39.371Z,28.20
2019-01-26T04:34:05.899Z,29.33
2019-01-26T04:36:32.432Z,28.20
2019-01-26T04:38:58.965Z,26.67
2019-01-26T04:41:25.809Z,28.27
2019-01-26T04:43:52.448Z,27.77
2019-01-26T04:46:19.183Z,28.40
2019-01-26T04:48:45.720Z,27.70
2019-01-26T04:51:12.561Z,27.53
2019-01-26T04:53:39.099Z,28.20
2019-01-26T04:56:05.937Z,27.77
2019-01-26T04:58:32.782Z,27.67
2019-01-26T05:00:59.625Z,26.93
2019-01-26T05:03:26.158Z,27.80
2019-01-26T05:05:52.689Z,26.57
2019-01-26T05:08:19.530Z,28.13
2019-01-26T05:10:46.065Z,27.30
2019-01-26T05:13:12.601Z,26.90
2019-01-26T05:15:39.441Z,26.10
2019-01-26T05:18:05.976Z,27.30
2019-01-26T05:20:32.817Z,25.83
2019-01-26T05:22:59.659Z,26.07
2019-01-26T05:25:26.195Z,26.67
2019-01-26T05:27:53.034Z,26.87
2019-01-26T05:30:19.571Z,26.67
2019-01-26T05:32:46.411Z,27.77
2019-01-26T05:35:12.948Z,26.43
2019-01-26T05:37:39.789Z,25.13
2019-01-26T05:40:06.323Z,26.27
2019-01-26T05:42:32.858Z,25.40
2019-01-26T05:44:59.699Z,25.97
2019-01-26T05:47:26.233Z,26.57
2019-01-26T05:49:52.773Z,26.43
2019-01-26T05:52:19.612Z,25.27
2019-01-26T05:54:46.451Z,26.67
2019-01-26T05:57:13.298Z,25.13
2019-01-26T05:59:40.245Z,25.53
2019-01-26T06:02:06.976Z,26.40
2019-01-26T06:04:33.514Z,25.47
2019-01-26T06:07:00.047Z,25.73
2019-01-26T06:09:26.891Z,24.53
2019-01-26T06:11:53.421Z,24.73
2019-01-26T06:14:19.964Z,25.63
2019-01-26T06:16:46.490Z,26.40
2019-01-26T06:19:13.037Z,25.07
2019-01-26T06:21:39.560Z,24.73
2019-01-26T06:24:06.093Z,24.97
2019-01-26T06:26:32.935Z,25.87
2019-01-26T06:28:59.778Z,25.83
2019-01-26T06:31:26.311Z,25.13
2019-01-26T06:33:52.846Z,25.80
2019-01-26T06:36:19.687Z,23.77
2019-01-26T06:38:46.530Z,24.63
2019-01-26T06:41:13.370Z,23.07
2019-01-26T06:43:39.906Z,24.70
2019-01-26T06:46:06.746Z,24.67
2019-01-26T06:48:33.284Z,23.03
2019-01-26T06:51:00.123Z,23.60
2019-01-26T06:53:26.659Z,24.03
2019-01-26T06:55:53.193Z,22.77
2019-01-26T06:58:19.730Z,22.87
2019-01-26T07:00:46.261Z,23.30
2019-01-26T07:03:13.103Z,22.93
2019-01-26T07:05:39.636Z,23.00
2019-01-26T07:08:06.172Z,22.73
2019-01-26T07:10:32.706Z,22.97
2019-01-26T07:12:59.547Z,23.67
2019-01-26T07:15:26.389Z,23.67
2019-01-26T07:17:52.924Z,22.60
2019-01-26T07:20:19.458Z,23.13
2019-01-26T07:22:46.001Z,22.20
2019-01-26T07:25:12.528Z,22.00
2019-01-26T07:27:39.369Z,22.47
2019-01-26T07:30:06.211Z,22.97
2019-01-26T07:32:32.746Z,23.07
2019-01-26T07:34:59.280Z,22.00
2019-01-26T07:37:26.122Z,21.40
2019-01-26T07:39:52.970Z,22.27
2019-01-26T07:42:19.498Z,21.77
2019-01-26T07:44:46.032Z,20.50
2019-01-26T07:47:12.875Z,21.90
2019-01-26T07:49:39.717Z,21.67
2019-01-26T07:52:06.558Z,21.53
2019-01-26T07:54:33.092Z,21.73
2019-01-26T07:56:59.640Z,21.53
2019-01-26T07:59:26.161Z,20.47
2019-01-26T08:01:53.003Z,21.57
2019-01-26T08:04:19.537Z,21.00
2019-01-26T08:06:46.073Z,21.03
2019-01-26T08:09:12.606Z,21.30
2019-01-26T08:11:39.447Z,20.00
2019-01-26T08:14:05.985Z,20.10
2019-01-26T08:16:32.517Z,19.77
2019-01-26T08:18:59.051Z,21.27
2019-01-26T08:21:25.893Z,18.97
2019-01-26T08:23:52.428Z,20.73
2019-01-26T08:26:19.269Z,19.80
2019-01-26T08:28:45.807Z,20.13
2019-01-26T08:31:12.338Z,19.63
2019-01-26T08:33:39.179Z,20.20
2019-01-26T08:36:05.717Z,19.93
2019-01-26T08:38:32.556Z,20.43
2019-01-26T08:40:59.091Z,19.40
2019-01-26T08:43:25.931Z,19.70
2019-01-26T08:45:52.778Z,19.03
2019-01-26T08:48:19.308Z,19.17
2019-01-26T08:50:46.151Z,19.53
2019-01-26T08:53:12.992Z,19.77
2019-01-26T08:55:39.528Z,20.60
2019-01-26T08:58:06.375Z,20.43
2019-01-26T09:00:32.905Z,19.37
2019-01-26T09:02:59.745Z,19.53
2019-01-26T09:05:26.602Z,20.60
2019-01-26T09:07:53.124Z,18.80
2019-01-26T09:10:19.962Z,18.03
2019-01-26T09:12:46.497Z,20.07
2019-01-26T09:15:13.032Z,18.97
2019-01-26T09:17:39.873Z,18.20
2019-01-26T09:20:06.714Z,19.47
2019-01-26T09:22:33.249Z,19.63
2019-01-26T09:24:59.785Z,19.30
2019-01-26T09:27:26.625Z,19.60
2019-01-26T09:29:53.160Z,19.73
2019-01-26T09:32:19.695Z,18.47
2019-01-26T09:34:46.536Z,19.60
2019-01-26T09:37:13.377Z,18.73
2019-01-26T09:39:40.225Z,19.00
2019-01-26T09:42:07.063Z,19.47
2019-01-26T09:44:33.596Z,19.23
2019-01-26T09:47:00.129Z,18.07
2019-01-26T09:49:26.972Z,19.27
2019-01-26T09:51:53.508Z,18.87
2019-01-26T09:54:20.330Z,18.57
2019-01-26T09:56:47.189Z,18.17
2019-01-26T09:59:13.803Z,18.97
2019-01-26T10:01:40.565Z,18.30
2019-01-26T10:04:07.101Z,18.43
2019-01-26T10:06:33.941Z,18.00
2019-01-26T10:09:00.476Z,18.50
2019-01-26T10:11:27.013Z,19.03
2019-01-26T10:13:53.853Z,18.47
2019-01-26T10:16:20.387Z,18.03
2019-01-26T10:18:53.321Z,18.83
2019-01-26T10:21:15.298Z,19.20
2019-01-26T10:23:41.834Z,18.03
2019-01-26T10:26:08.375Z,18.83
2019-01-26T10:28:35.215Z,18.70
2019-01-26T10:31:02.051Z,18.90
2019-01-26T10:33:28.587Z,19.10
2019-01-26T10:35:55.120Z,18.20
2019-01-26T10:38:21.656Z,18.07
2019-01-26T10:40:48.496Z,18.67
2019-01-26T10:43:15.030Z,19.00
2019-01-26T10:45:41.565Z,17.70
2019-01-26T10:48:08.406Z,18.33
2019-01-26T10:50:35.249Z,19.40
2019-01-26T10:53:01.783Z,18.30
2019-01-26T10:55:28.632Z,18.13
2019-01-26T10:57:55.466Z,18.57
2019-01-26T11:00:22.003Z,19.57
2019-01-26T11:02:48.537Z,17.87
2019-01-26T11:05:15.071Z,17.77
2019-01-26T11:07:41.822Z,18.50
2019-01-26T11:10:08.445Z,17.97
2019-01-26T11:12:35.287Z,18.53
2019-01-26T11:15:01.822Z,17.80
2019-01-26T11:17:28.666Z,17.57
2019-01-26T11:19:55.197Z,17.43
2019-01-26T11:22:22.040Z,16.70
2019-01-26T11:24:48.883Z,16.90
2019-01-26T11:27:15.419Z,16.30
2019-01-26T11:29:41.960Z,16.87
2019-01-26T11:32:08.488Z,17.60
2019-01-26T11:34:35.019Z,16.70
2019-01-26T11:37:01.863Z,16.73
2019-01-26T11:39:28.705Z,16.60
2019-01-26T11:41:55.238Z,16.73
2019-01-26T11:44:21.774Z,16.50
2019-01-26T11:46:48.615Z,16.57
2019-01-26T11:49:16.074Z,16.57
2019-01-26T11:51:42.605Z,16.00
2019-01-26T11:54:09.140Z,16.73
2019-01-26T11:56:35.674Z,15.83
2019-01-26T11:59:02.522Z,16.90
2019-01-26T12:01:29.049Z,17.07
2019-01-26T12:03:55.567Z,16.97
2019-01-26T12:06:23.645Z,17.57
2019-01-26T12:08:50.804Z,16.40
2019-01-26T12:11:17.340Z,16.87
2019-01-26T12:13:44.181Z,16.97
2019-01-26T12:16:11.636Z,16.43
2019-01-26T12:18:38.170Z,17.57
2019-01-26T12:21:04.706Z,16.73
2019-01-26T12:23:31.239Z,16.53
2019-01-26T12:25:58.081Z,16.07
2019-01-26T12:28:24.615Z,17.83
2019-01-26T12:30:51.153Z,17.57
2019-01-26T12:33:17.691Z,16.87
2019-01-26T12:35:44.350Z,16.93
2019-01-26T12:38:11.368Z,17.53
2019-01-26T12:40:38.210Z,17.40
2019-01-26T12:43:04.783Z,17.37
2019-01-26T12:45:31.587Z,17.93
2019-01-26T12:47:58.428Z,17.50
2019-01-26T12:50:25.269Z,17.53
2019-01-26T12:52:51.806Z,18.00
2019-01-26T12:55:18.342Z,18.50
2019-01-26T12:57:44.874Z,18.03
2019-01-26T13:00:11.408Z,17.57
2019-01-26T13:02:38.248Z,18.13
2019-01-26T13:05:05.094Z,18.53
2019-01-26T13:07:31.625Z,19.03
2019-01-26T13:09:58.159Z,18.90
2019-01-26T13:12:24.694Z,18.10
2019-01-26T13:14:51.535Z,18.40
2019-01-26T13:17:18.071Z,18.53
2019-01-26T13:19:44.609Z,19.33
2019-01-26T13:22:11.450Z,18.50
2019-01-26T13:24:37.981Z,19.23
2019-01-26T13:27:04.823Z,18.60
2019-01-26T13:29:31.664Z,18.70
2019-01-26T13:31:58.503Z,18.50
2019-01-26T13:34:25.041Z,18.67
2019-01-26T13:36:51.882Z,18.47
2019-01-26T13:39:18.724Z,19.53
2019-01-26T13:41:45.259Z,19.57
2019-01-26T13:44:12.100Z,19.17
2019-01-26T13:46:38.635Z,18.60
2019-01-26T13:49:05.171Z,19.00
2019-01-26T13:51:32.385Z,18.80
2019-01-26T13:53:59.467Z,19.63
2019-01-26T13:56:26.309Z,18.37
2019-01-26T13:58:53.151Z,19.70
2019-01-26T14:01:19.993Z,18.93
2019-01-26T14:03:46.833Z,19.37
2019-01-26T14:06:13.402Z,19.90
2019-01-26T14:08:40.209Z,19.27
2019-01-26T14:11:06.748Z,18.33
2019-01-26T14:13:33.280Z,19.50
2019-01-26T14:16:00.157Z,18.97
2019-01-26T14:18:26.963Z,19.93
2019-01-26T14:20:53.501Z,19.47
2019-01-26T14:23:20.341Z,18.70
2019-01-26T14:25:46.877Z,19.53
2019-01-26T14:28:13.714Z,18.63
2019-01-26T14:30:40.557Z,19.00
2019-01-26T14:33:07.398Z,20.00
2019-01-26T14:35:34.239Z,20.20
2019-01-26T14:38:00.773Z,19.43
2019-01-26T14:40:27.311Z,18.97
2019-01-26T14:42:54.702Z,20.00
2019-01-26T14:45:21.606Z,19.80
2019-01-26T14:47:48.334Z,20.37
2019-01-26T14:50:14.984Z,19.40
2019-01-26T14:52:41.519Z,18.70
2019-01-26T14:55:08.053Z,20.33
2019-01-26T14:57:34.884Z,19.10
2019-01-26T15:00:01.737Z,20.53
2019-01-26T15:02:28.580Z,19.13
2019-01-26T15:04:55.111Z,21.13
2019-01-26T15:07:21.647Z,19.33
2019-01-26T15:09:48.488Z,20.60
2019-01-26T15:12:15.329Z,19.27
2019-01-26T15:14:42.175Z,20.10
2019-01-26T15:17:09.012Z,21.53
2019-01-26T15:19:35.853Z,20.70
2019-01-26T15:22:02.697Z,19.93
2019-01-26T15:24:29.538Z,20.37
2019-01-26T15:26:56.072Z,20.80
2019-01-26T15:29:22.607Z,19.87
2019-01-26T15:31:49.448Z,19.83
2019-01-26T15:34:16.290Z,19.53
2019-01-26T15:36:42.824Z,19.87
2019-01-26T15:39:09.666Z,20.27
2019-01-26T15:41:36.507Z,20.43
2019-01-26T15:44:03.045Z,20.17
2019-01-26T15:46:29.885Z,20.47
2019-01-26T15:48:56.418Z,20.40
2019-01-26T15:51:22.953Z,21.03
2019-01-26T15:53:49.487Z,21.13
2019-01-26T15:56:16.026Z,22.37
2019-01-26T15:58:42.866Z,20.57
2019-01-26T16:01:09.707Z,20.83
2019-01-26T16:03:36.547Z,20.20
2019-01-26T16:06:03.082Z,20.77
2019-01-26T16:08:29.923Z,20.73
2019-01-26T16:10:56.765Z,21.07
2019-01-26T16:13:23.301Z,20.87
2019-01-26T16:15:50.141Z,20.93
2019-01-26T16:18:16.676Z,19.93
2019-01-26T16:20:43.209Z,20.60
2019-01-26T16:23:10.051Z,21.63
2019-01-26T16:25:36.585Z,20.70
2019-01-26T16:28:03.120Z,20.47
2019-01-26T16:30:29.962Z,19.97
2019-01-26T16:32:56.497Z,20.53
2019-01-26T16:35:23.339Z,20.97
2019-01-26T16:37:49.873Z,20.50
2019-01-26T16:40:16.715Z,20.43
2019-01-26T16:42:43.250Z,20.47
2019-01-26T16:45:09.783Z,21.37
2019-01-26T16:47:36.321Z,20.03
2019-01-26T16:50:02.854Z,19.83
2019-01-26T16:52:29.390Z,20.37
2019-01-26T16:54:56.228Z,20.80
2019-01-26T16:57:22.763Z,20.70
2019-01-26T16:59:49.607Z,20.20
2019-01-26T17:02:16.139Z,19.47
2019-01-26T17:04:42.673Z,20.37
2019-01-26T17:07:09.520Z,19.80
2019-01-26T17:09:36.050Z,20.73
2019-01-26T17:12:02.893Z,20.83
2019-01-26T17:14:29.735Z,20.67
2019-01-26T17:16:56.267Z,19.60
2019-01-26T17:19:23.109Z,20.97
2019-01-26T17:21:49.643Z,19.17
2019-01-26T17:24:16.486Z,19.27
2019-01-26T17:26:43.022Z,19.53
2019-01-26T17:29:09.863Z,19.30
2019-01-26T17:31:36.703Z,19.47
2019-01-26T17:34:03.241Z,19.63
2019-01-26T17:36:30.080Z,18.73
2019-01-26T17:38:56.615Z,19.63
2019-01-26T17:41:23.457Z,19.27
2019-01-26T17:43:49.990Z,18.63
2019-01-26T17:46:16.835Z,18.10
2019-01-26T17:48:43.379Z,18.07
2019-01-26T17:51:09.905Z,18.90
2019-01-26T17:53:36.743Z,18.97
2019-01-26T17:56:03.277Z,19.37
2019-01-26T17:58:29.815Z,19.90
2019-01-26T18:00:57.274Z,18.80
2019-01-26T18:03:23.806Z,18.97
2019-01-26T18:05:50.647Z,18.33
2019-01-26T18:08:17.179Z,19.07
2019-01-26T18:10:43.712Z,18.53
2019-01-26T18:13:10.558Z,18.73
2019-01-26T18:15:37.395Z,19.80
2019-01-26T18:18:03.933Z,18.43
2019-01-26T18:20:30.465Z,19.03
2019-01-26T18:22:57.003Z,19.00
2019-01-26T18:25:23.537Z,18.13
2019-01-26T18:27:50.071Z,18.67
2019-01-26T18:30:16.608Z,18.10
2019-01-26T18:32:43.138Z,17.93
2019-01-26T18:35:09.979Z,18.37
2019-01-26T18:37:36.821Z,18.10
2019-01-26T18:40:03.662Z,17.53
2019-01-26T18:42:30.199Z,16.83
2019-01-26T18:44:56.731Z,17.70
2019-01-26T18:47:23.266Z,17.57
2019-01-26T18:49:50.108Z,18.13
2019-01-26T18:52:16.949Z,17.93
2019-01-26T18:54:43.487Z,17.83
2019-01-26T18:57:10.326Z,18.03
2019-01-26T18:59:36.862Z,18.43
2019-01-26T19:02:03.701Z,17.47
2019-01-26T19:04:30.237Z,17.10
2019-01-26T19:06:56.772Z,18.40
2019-01-26T19:09:23.613Z,18.07
2019-01-26T19:11:50.148Z,17.47
2019-01-26T19:14:17.034Z,17.67
2019-01-26T19:16:43.830Z,18.20
2019-01-26T19:19:10.367Z,17.97
2019-01-26T19:21:36.900Z,17.97
2019-01-26T19:24:03.741Z,19.10
2019-01-26T19:26:30.302Z,18.07
2019-01-26T19:28:57.119Z,18.07
2019-01-26T19:31:23.734Z,17.50
2019-01-26T19:33:50.493Z,18.67
2019-01-26T19:36:17.334Z,19.30
2019-01-26T19:38:43.878Z,18.33
2019-01-26T19:41:10.408Z,19.37
2019-01-26T19:43:37.246Z,17.87
2019-01-26T19:46:03.788Z,19.87
2019-01-26T19:51:17.214Z,18.77
2019-01-26T19:53:43.968Z,19.40
2019-01-26T19:56:11.117Z,19.67
2019-01-26T19:58:37.956Z,19.13
2019-01-26T20:01:04.798Z,19.80
2019-01-26T20:03:32.344Z,18.87
2019-01-26T20:05:59.097Z,20.93
2019-01-26T20:08:25.938Z,19.77
2019-01-26T20:10:52.473Z,19.60
2019-01-26T20:13:19.314Z,19.73
2019-01-26T20:15:45.848Z,19.77
2019-01-26T20:18:12.387Z,19.80
2019-01-26T20:20:39.363Z,19.63
2019-01-26T20:23:06.065Z,19.83
2019-01-26T20:25:32.622Z,21.07
2019-01-26T20:27:59.135Z,21.03
2019-01-26T20:30:25.670Z,20.53
2019-01-26T20:32:52.523Z,21.50
2019-01-26T20:35:19.049Z,20.63
2019-01-26T20:37:45.582Z,20.80
2019-01-26T20:40:12.422Z,21.47
2019-01-26T20:42:39.265Z,21.03
2019-01-26T20:45:06.106Z,21.83
2019-01-26T20:47:32.950Z,21.77
2019-01-26T20:49:59.801Z,21.37
2019-01-26T20:52:26.628Z,21.43
2019-01-26T20:54:53.477Z,20.80
2019-01-26T20:57:20.315Z,21.70
2019-01-26T20:59:47.175Z,22.57
2019-01-26T21:02:14.002Z,22.17
2019-01-26T21:04:40.538Z,22.30
2019-01-26T21:07:07.381Z,22.57
2019-01-26T21:09:34.215Z,21.60
2019-01-26T21:12:01.057Z,22.77
2019-01-26T21:14:28.002Z,21.60
2019-01-26T21:16:54.741Z,22.70
2019-01-26T21:19:21.275Z,23.27
2019-01-26T21:21:48.119Z,22.73
2019-01-26T21:24:14.654Z,21.57
2019-01-26T21:26:41.186Z,21.90
2019-01-26T21:29:08.027Z,21.10
2019-01-26T21:31:34.563Z,22.57
2019-01-26T21:34:01.404Z,22.83
2019-01-26T21:36:27.938Z,23.47
2019-01-26T21:38:54.476Z,22.20
2019-01-26T21:41:21.011Z,22.23
2019-01-26T21:43:47.541Z,22.03
2019-01-26T21:46:14.385Z,22.73
2019-01-26T21:48:41.759Z,22.60
2019-01-26T21:51:08.682Z,22.57
2019-01-26T21:53:35.216Z,23.13
2019-01-26T21:56:01.750Z,22.67
2019-01-26T21:58:28.594Z,23.07
2019-01-26T22:00:55.126Z,21.60
2019-01-26T22:03:21.968Z,22.97
2019-01-26T22:05:48.503Z,22.00
2019-01-26T22:08:15.346Z,23.03
2019-01-26T22:10:42.186Z,22.70
2019-01-26T22:13:08.726Z,22.50
2019-01-26T22:15:35.256Z,21.90
2019-01-26T22:18:01.790Z,23.10
2019-01-26T22:20:28.327Z,23.80
2019-01-26T22:22:55.167Z,22.87
2019-01-26T22:25:22.008Z,22.03
2019-01-26T22:27:48.544Z,23.37
2019-01-26T22:30:15.383Z,22.07
2019-01-26T22:32:42.260Z,22.60
2019-01-26T22:35:09.410Z,22.47
2019-01-26T22:37:36.215Z,22.20
2019-01-26T22:40:02.751Z,23.13
2019-01-26T22:42:29.594Z,22.60
2019-01-26T22:44:56.130Z,22.73
2019-01-26T22:47:22.968Z,21.33
2019-01-26T22:49:49.505Z,22.43
2019-01-26T22:52:16.344Z,22.90
2019-01-26T22:54:42.879Z,22.67
2019-01-26T22:57:09.413Z,22.43
2019-01-26T22:59:36.255Z,22.23
2019-01-26T23:02:02.792Z,22.80
2019-01-26T23:04:29.630Z,23.47
2019-01-26T23:06:56.473Z,21.63
2019-01-26T23:09:23.006Z,22.17
2019-01-26T23:11:49.848Z,23.17
2019-01-26T23:14:16.691Z,21.90
2019-01-26T23:16:43.533Z,23.20
2019-01-26T23:19:10.067Z,22.93
2019-01-26T23:21:36.602Z,22.60
2019-01-26T23:24:03.444Z,23.23
2019-01-26T23:26:29.969Z,22.43
2019-01-26T23:28:56.819Z,23.33
2019-01-26T23:31:23.661Z,23.23
2019-01-26T23:33:50.197Z,23.40
2019-01-26T23:36:17.036Z,22.30
2019-01-26T23:38:43.578Z,22.47
2019-01-26T23:41:10.107Z,22.20
2019-01-26T23:43:36.643Z,23.70
2019-01-26T23:46:03.175Z,23.43
2019-01-26T23:48:30.022Z,24.83
2019-01-26T23:50:56.552Z,23.37
2019-01-26T23:53:23.086Z,25.30
2019-01-26T23:55:49.620Z,24.00
2019-01-26T23:58:16.464Z,22.40
